Time;durP1;ratioP1;P1;durP2;ratioP2;P2;SDS_P1;SDS_P2;PMS_P1;PMS_P2;Temp;Humidity;BMP_temperature;BMP_pressure;BME280_temperature;BME280_humidity;BME280_pressure;Samples;Min_cycle;Max_cycle;Signal;HPM_P1;HPM_P2
2024/01/15 06:19:44;;;;;;;;;;;;;;;5.73;71.45;95935.34;4209107;27;10537;-73
2024/01/15 06:21:47;;;;;;;;;;;;;;;6.00;70.64;95933.03;4199921;28;5804;-73
2024/01/15 06:23:50;;;;;;;;;;;;;;;6.19;70.39;95935.06;4192048;28;5744;-73
2024/01/15 06:25:53;;;;;;;;;;;;;;;6.37;69.69;95939.91;4194382;28;6553;-74
2024/01/15 06:27:56;;;;;;;;;;;;;;;6.51;69.60;95939.00;4194889;28;6880;-74
2024/01/15 06:29:59;;;;;;;;;;;;;;;6.62;69.31;95941.13;4186898;28;5738;-74
2024/01/15 06:32:03;;;;;;;;;;;;;;;6.72;68.72;95948.69;4183826;28;5819;-73
2024/01/15 06:34:06;;;;;;;;;;;;;;;6.79;68.14;95959.22;4188187;28;5886;-73
2024/01/15 06:36:10;;;;;;;;;;;;;;;6.84;68.09;95956.88;4193445;28;5751;-74
2024/01/15 06:38:14;;;;;;;;;;;;;;;6.90;68.08;95951.66;4196115;28;5678;-74
2024/01/15 06:40:17;;;;;;;;;;;;;;;6.94;67.76;95941.59;4197370;28;6372;-73
2024/01/15 06:42:21;;;;;;;;;;;;;;;6.97;67.39;95943.81;4194142;28;5696;-73
2024/01/15 06:44:25;;;;;;;;;;;;;;;7.03;67.09;95944.88;4195877;28;5833;-73
2024/01/15 06:46:28;;;;;;;;;;;;;;;7.06;66.97;95937.44;4196990;28;5697;-73
2024/01/15 06:48:30;;;;;;;;;;;;;;;7.05;66.50;95935.00;4197018;28;5724;-74
2024/01/15 06:50:34;;;;;;;;;;;;;;;7.09;66.56;95942.28;4195640;28;6419;-74
2024/01/15 06:52:38;;;;;;;;;;;;;;;7.13;66.36;95943.53;4196474;28;5845;-74
2024/01/15 06:54:40;;;;;;;;;;;;;;;7.16;65.92;95944.97;4189834;28;5731;-74
2024/01/15 06:56:43;;;;;;;;;;;;;;;7.17;65.88;95936.91;4196295;28;6241;-73
2024/01/15 06:58:46;;;;;;;;;;;;;;;7.20;65.94;95933.06;4188361;28;5873;-73
2024/01/15 07:00:49;;;;;;;;;;;;;;;7.19;65.70;95941.94;4190513;28;5791;-73
2024/01/15 07:02:52;;;;;;;;;;;;;;;7.22;65.87;95942.38;4194648;28;5715;-73
2024/01/15 07:04:55;;;;;;;;;;;;;;;7.24;65.49;95936.91;4187896;28;5721;-73
2024/01/15 07:06:58;;;;;;;;;;;;;;;7.25;65.39;95933.31;4197041;28;5798;-73
2024/01/15 07:09:03;;;;;;;;;;;;;;;7.27;65.46;95931.28;4196613;28;5821;-73
2024/01/15 07:11:06;;;;;;;;;;;;;;;7.26;65.08;95937.56;4196985;28;5908;-74
2024/01/15 07:13:10;;;;;;;;;;;;;;;7.26;64.93;95932.31;4196578;28;5718;-74
2024/01/15 07:15:13;;;;;;;;;;;;;;;7.26;65.08;95932.31;4194752;28;5806;-74
2024/01/15 07:17:16;;;;;;;;;;;;;;;7.28;64.98;95944.25;4186770;28;5736;-74
2024/01/15 07:19:19;;;;;;;;;;;;;;;7.26;64.60;95942.81;4186605;28;5723;-74
2024/01/15 07:21:22;;;;;;;;;;;;;;;7.25;64.73;95939.38;4185966;28;5735;-73
2024/01/15 07:23:25;;;;;;;;;;;;;;;7.25;64.25;95952.53;4185275;28;5814;-74
2024/01/15 07:25:34;;;;;;;;;;;;;;;7.23;64.08;95945.81;4185655;28;5829;-73
2024/01/15 07:27:37;;;;;;;;;;;;;;;7.22;64.12;95941.56;4185754;28;6563;-73
2024/01/15 07:29:40;;;;;;;;;;;;;;;7.25;64.21;95939.38;4176583;28;5714;-74
2024/01/15 07:31:49;;;;;;;;;;;;;;;7.27;63.96;95947.06;4185540;28;5746;-73
2024/01/15 07:33:52;;;;;;;;;;;;;;;7.25;63.88;95947.28;4183647;28;5806;-74
2024/01/15 07:35:55;;;;;;;;;;;;;;;7.29;64.07;95937.16;4184134;28;5781;-74
2024/01/15 07:37:59;;;;;;;;;;;;;;;7.32;63.71;95936.78;4183611;28;6256;-74
2024/01/15 07:40:01;;;;;;;;;;;;;;;7.36;63.39;95931.94;4183535;28;5154;-74
2024/01/15 07:42:07;;;;;;;;;;;;;;;7.39;63.44;95927.13;4181464;28;5810;-74
2024/01/15 07:44:10;;;;;;;;;;;;;;;7.39;63.63;95921.84;4180814;28;5697;-73
2024/01/15 07:46:13;;;;;;;;;;;;;;;7.44;63.34;95932.59;4183859;28;5754;-73
2024/01/15 07:48:16;;;;;;;;;;;;;;;7.46;63.45;95927.13;4185793;28;5809;-73
2024/01/15 07:50:20;;;;;;;;;;;;;;;7.45;63.10;95928.94;4185608;28;5746;-72
2024/01/15 07:52:23;;;;;;;;;;;;;;;7.47;63.31;95924.31;4172144;28;5756;-73
2024/01/15 07:54:26;;;;;;;;;;;;;;;7.48;62.91;95927.78;4181531;28;5814;-73
2024/01/15 07:56:29;;;;;;;;;;;;;;;7.50;63.10;95920.50;4185121;28;5825;-73
2024/01/15 07:58:34;;;;;;;;;;;;;;;7.50;62.85;95923.13;4184752;28;5726;-72
2024/01/15 08:00:37;;;;;;;;;;;;;;;7.52;62.61;95931.63;4185483;28;5791;-73
2024/01/15 08:02:40;;;;;;;;;;;;;;;7.47;62.59;95929.56;4168830;28;5740;-72
2024/01/15 08:04:44;;;;;;;;;;;;;;;7.47;62.35;95923.50;4179549;28;5738;-73
2024/01/15 08:06:46;;;;;;;;;;;;;;;7.43;62.23;95922.28;4184536;28;5711;-73
2024/01/15 08:08:49;;;;;;;;;;;;;;;7.46;62.12;95927.13;4183179;28;5642;-73
2024/01/15 08:10:53;;;;;;;;;;;;;;;7.51;62.08;95927.38;4185268;28;5691;-73
2024/01/15 08:12:56;;;;;;;;;;;;;;;7.55;62.31;95939.13;4185175;28;5768;-73
2024/01/15 08:15:00;;;;;;;;;;;;;;;7.56;62.05;95938.13;4185093;28;5822;-73
2024/01/15 08:17:03;;;;;;;;;;;;;;;7.58;61.62;95952.69;4179744;28;5827;-73
2024/01/15 08:19:06;;;;;;;;;;;;;;;7.61;61.84;95945.44;4185017;28;5681;-73
2024/01/15 08:21:09;;;;;;;;;;;;;;;7.62;62.16;95945.25;4184225;28;5775;-73
2024/01/15 08:23:12;;;;;;;;;;;;;;;7.62;61.70;95942.59;4181798;28;5693;-73
2024/01/15 08:25:15;;;;;;;;;;;;;;;7.62;61.60;95941.78;4182412;28;5666;-73
2024/01/15 08:27:19;;;;;;;;;;;;;;;7.65;61.65;95936.94;4183758;28;5711;-73
2024/01/15 08:29:24;;;;;;;;;;;;;;;7.66;61.81;95937.75;4183074;28;5076;-73
2024/01/15 08:31:28;;;;;;;;;;;;;;;7.70;61.86;95936.34;4180643;28;5743;-73
2024/01/15 08:33:32;;;;;;;;;;;;;;;7.71;61.23;95941.44;4183285;28;5777;-73
2024/01/15 08:35:35;;;;;;;;;;;;;;;7.72;61.64;95943.06;4175777;28;5821;-73
2024/01/15 08:37:39;;;;;;;;;;;;;;;7.76;61.25;95938.22;4182479;28;6412;-74
2024/01/15 08:39:42;;;;;;;;;;;;;;;7.77;60.99;95935.38;4184651;28;6518;-73
2024/01/15 08:41:46;;;;;;;;;;;;;;;7.76;61.06;95935.59;4182267;28;5703;-73
2024/01/15 08:43:50;;;;;;;;;;;;;;;7.76;60.95;95932.94;4184343;28;5715;-73
2024/01/15 08:45:53;;;;;;;;;;;;;;;7.77;60.83;95927.47;4184173;28;5727;-73
2024/01/15 08:47:57;;;;;;;;;;;;;;;7.79;61.25;95922.03;4178499;28;5732;-73
2024/01/15 08:50:00;;;;;;;;;;;;;;;7.79;61.24;95922.03;4184691;28;5686;-73
2024/01/15 08:52:04;;;;;;;;;;;;;;;7.81;61.02;95917.38;4184738;28;5824;-72
2024/01/15 08:54:08;;;;;;;;;;;;;;;7.84;61.00;95919.63;4183862;28;5698;-72
2024/01/15 08:56:11;;;;;;;;;;;;;;;7.84;60.71;95917.81;4184732;28;5715;-72
2024/01/15 08:58:14;;;;;;;;;;;;;;;7.84;60.70;95925.69;4184876;28;5806;-73
2024/01/15 09:00:18;;;;;;;;;;;;;;;7.84;61.03;95923.06;4184084;28;5780;-73
2024/01/15 09:02:21;;;;;;;;;;;;;;;7.85;60.87;95923.88;4183721;28;5771;-73
2024/01/15 09:04:26;;;;;;;;;;;;;;;7.85;61.03;95924.69;4183556;28;5843;-73
2024/01/15 09:06:29;;;;;;;;;;;;;;;7.85;60.58;95927.31;4182403;28;5726;-73
2024/01/15 09:08:31;;;;;;;;;;;;;;;7.88;60.86;95920.84;4183081;28;5753;-74
2024/01/15 09:10:34;;;;;;;;;;;;;;;7.90;60.85;95918.81;4184296;28;5707;-73
2024/01/15 09:12:38;;;;;;;;;;;;;;;7.94;60.73;95914.81;4184419;28;5799;-73
2024/01/15 09:14:42;;;;;;;;;;;;;;;7.94;60.85;95899.00;4167819;28;5760;-73
2024/01/15 09:16:46;;;;;;;;;;;;;;;7.96;60.71;95896.19;4179390;28;5658;-72
2024/01/15 09:18:49;;;;;;;;;;;;;;;7.96;60.48;95906.72;4184074;28;5695;-73
2024/01/15 09:20:53;;;;;;;;;;;;;;;7.97;60.48;95901.25;4182785;28;7737;-73
2024/01/15 09:22:56;;;;;;;;;;;;;;;7.99;60.47;95901.84;4183638;28;5782;-73
2024/01/15 09:24:59;;;;;;;;;;;;;;;7.98;60.46;95896.78;4183935;28;5867;-72
2024/01/15 09:27:03;;;;;;;;;;;;;;;7.96;60.07;95891.72;4183157;28;5682;-73
2024/01/15 09:29:06;;;;;;;;;;;;;;;7.96;60.32;95906.72;4183949;28;5712;-73
2024/01/15 09:31:10;;;;;;;;;;;;;;;7.92;60.12;95911.53;4183152;28;5818;-74
2024/01/15 09:33:13;;;;;;;;;;;;;;;7.93;59.83;95896.56;4184080;28;5821;-73
2024/01/15 09:35:17;;;;;;;;;;;;;;;7.90;59.59;95903.03;4175949;28;6525;-73
2024/01/15 09:37:21;;;;;;;;;;;;;;;7.91;59.72;95915.19;4181685;28;5682;-73
2024/01/15 09:39:44;;;;;;;;;;;;;;;7.91;59.77;95925.72;4184188;28;5706;-74
2024/01/15 09:41:49;;;;;;;;;;;;;;;7.92;59.76;95931.78;4183949;28;5693;-72
2024/01/15 09:43:52;;;;;;;;;;;;;;;7.95;59.95;95941.94;4183475;28;5773;-74
2024/01/15 09:45:56;;;;;;;;;;;;;;;7.98;59.53;95929.19;4179216;28;5823;-74
2024/01/15 09:47:59;;;;;;;;;;;;;;;8.00;59.63;95919.25;4169467;28;5908;-74
2024/01/15 09:50:03;;;;;;;;;;;;;;;8.02;59.50;95917.25;4182696;28;5718;-74
2024/01/15 09:52:08;;;;;;;;;;;;;;;8.04;59.43;95912.63;4182602;28;5563;-74
2024/01/15 09:54:17;;;;;;;;;;;;;;;8.08;59.26;95916.47;4183631;28;5858;-73
2024/01/15 09:56:21;;;;;;;;;;;;;;;8.09;59.34;95914.63;4168529;28;5748;-74
2024/01/15 09:58:24;;;;;;;;;;;;;;;8.13;59.55;95916.66;4171589;28;5666;-74
2024/01/15 10:00:29;;;;;;;;;;;;;;;8.12;59.10;95911.59;4182825;28;5867;-73
2024/01/15 10:02:31;;;;;;;;;;;;;;;8.14;59.45;95920.09;4183833;28;5815;-74
2024/01/15 10:04:34;;;;;;;;;;;;;;;8.15;59.43;95917.31;4183478;28;5699;-75
2024/01/15 10:06:39;;;;;;;;;;;;;;;8.19;59.13;95915.06;4182627;28;5689;-74
2024/01/15 10:08:44;;;;;;;;;;;;;;;8.21;58.97;95905.16;4175561;28;5878;-75
2024/01/15 10:10:49;;;;;;;;;;;;;;;8.23;59.10;95902.31;4180534;28;5719;-73
2024/01/15 10:12:55;;;;;;;;;;;;;;;8.24;58.66;95915.28;4183497;28;5739;-72
2024/01/15 10:14:59;;;;;;;;;;;;;;;8.20;58.87;95915.88;4183543;28;5964;-73
2024/01/15 10:17:12;;;;;;;;;;;;;;;8.16;58.67;95915.47;4182831;28;5806;-74
2024/01/15 10:19:15;;;;;;;;;;;;;;;8.11;58.89;95905.53;4183406;28;5689;-73
2024/01/15 10:21:19;;;;;;;;;;;;;;;8.13;59.01;95908.75;4181348;28;5678;-73
2024/01/15 10:23:23;;;;;;;;;;;;;;;8.14;58.69;95902.50;4183501;28;5767;-74
2024/01/15 10:25:26;;;;;;;;;;;;;;;8.16;58.95;95912.84;4181122;28;5651;-74
2024/01/15 10:27:29;;;;;;;;;;;;;;;8.12;58.88;95914.22;4183501;28;5777;-74
2024/01/15 10:29:32;;;;;;;;;;;;;;;8.09;58.77;95918.09;4182691;28;5841;-74
2024/01/15 10:31:35;;;;;;;;;;;;;;;8.10;59.16;95908.38;4183348;28;6385;-74
2024/01/15 10:33:38;;;;;;;;;;;;;;;8.05;58.75;95901.06;4183234;28;5812;-74
2024/01/15 10:35:42;;;;;;;;;;;;;;;8.02;58.95;95898.81;4179727;28;5853;-73
2024/01/15 10:37:44;;;;;;;;;;;;;;;8.03;58.90;95902.25;4183055;28;5950;-74
2024/01/15 10:39:48;;;;;;;;;;;;;;;8.01;59.15;95899.81;4180360;28;5849;-73
2024/01/15 10:41:51;;;;;;;;;;;;;;;8.02;58.92;95896.19;4176552;28;5723;-73
2024/01/15 10:43:56;;;;;;;;;;;;;;;8.05;59.33;95900.25;4181686;28;5808;-73
2024/01/15 10:45:59;;;;;;;;;;;;;;;8.04;59.22;95894.19;4181174;28;5849;-74
2024/01/15 10:48:04;;;;;;;;;;;;;;;8.03;59.21;95882.00;4183112;28;5711;-73
2024/01/15 10:50:08;;;;;;;;;;;;;;;8.06;59.37;95886.09;4183069;28;5715;-74
2024/01/15 10:52:12;;;;;;;;;;;;;;;8.03;59.02;95895.16;4183300;28;5693;-73
2024/01/15 10:54:15;;;;;;;;;;;;;;;8.02;59.22;95888.28;4172239;28;5708;-73
2024/01/15 10:56:19;;;;;;;;;;;;;;;7.97;59.18;95879.38;4182540;28;5723;-72
2024/01/15 10:58:23;;;;;;;;;;;;;;;7.98;59.16;95879.19;4180336;28;5711;-74
2024/01/15 11:00:28;;;;;;;;;;;;;;;8.01;59.20;95872.69;4184562;28;5715;-73
2024/01/15 11:02:32;;;;;;;;;;;;;;;8.00;59.63;95877.16;4186549;28;5842;-74
2024/01/15 11:04:35;;;;;;;;;;;;;;;7.98;59.49;95876.53;4184997;28;5744;-73
2024/01/15 11:06:42;;;;;;;;;;;;;;;8.00;59.55;95869.25;4186371;28;5806;-74
2024/01/15 11:08:50;;;;;;;;;;;;;;;8.06;59.54;95879.00;4185073;28;5650;-74
2024/01/15 11:10:54;;;;;;;;;;;;;;;8.08;59.53;95878.78;4186101;28;5708;-74
2024/01/15 11:12:56;;;;;;;;;;;;;;;8.10;59.30;95879.41;4184256;28;5775;-74
2024/01/15 11:15:05;;;;;;;;;;;;;;;8.10;59.34;95869.69;4185428;28;5719;-74
2024/01/15 11:17:09;;;;;;;;;;;;;;;8.16;59.75;95870.72;4176576;28;6814;-73
2024/01/15 11:19:14;;;;;;;;;;;;;;;8.16;59.79;95871.53;4182167;28;5838;-73
2024/01/15 11:21:27;;;;;;;;;;;;;;;8.17;59.25;95882.88;4186409;28;5707;-73
2024/01/15 11:23:42;;;;;;;;;;;;;;;8.15;59.41;95877.81;4186021;28;5674;-73
2024/01/15 11:25:46;;;;;;;;;;;;;;;8.16;59.53;95881.25;4186023;28;5771;-73
2024/01/15 11:27:51;;;;;;;;;;;;;;;8.16;59.56;95892.59;4185639;28;5795;-73
2024/01/15 11:30:05;;;;;;;;;;;;;;;8.16;59.54;95887.31;4185553;28;5744;-74
2024/01/15 11:32:10;;;;;;;;;;;;;;;8.13;59.80;95876.38;4184264;28;5673;-65
2024/01/15 11:34:12;;;;;;;;;;;;;;;8.11;59.60;95870.50;4177404;28;5819;-74
2024/01/15 11:36:16;;;;;;;;;;;;;;;8.16;59.84;95870.72;4185100;28;5123;-72
2024/01/15 11:38:30;;;;;;;;;;;;;;;8.14;59.88;95881.44;4180049;28;7808;-78
2024/01/15 11:40:39;;;;;;;;;;;;;;;8.15;59.91;95876.97;4169468;28;5096;-79
2024/01/15 11:42:42;;;;;;;;;;;;;;;8.15;59.67;95869.91;4178021;28;8416;-78
2024/01/15 11:44:45;;;;;;;;;;;;;;;8.14;59.59;95878.78;4174813;28;5875;-77
2024/01/15 11:46:58;;;;;;;;;;;;;;;8.18;59.93;95868.69;4182505;28;5715;-77
2024/01/15 11:49:05;;;;;;;;;;;;;;;8.18;59.95;95860.78;4184861;28;6396;-76
2024/01/15 11:51:11;;;;;;;;;;;;;;;8.17;59.78;95874.97;4180747;28;5708;-78
2024/01/15 11:53:27;;;;;;;;;;;;;;;8.15;59.85;95872.53;4182119;28;5862;-78
2024/01/15 11:55:34;;;;;;;;;;;;;;;8.19;60.06;95883.47;4180169;28;6017;-78
2024/01/15 11:57:43;;;;;;;;;;;;;;;8.20;59.67;95889.56;4185151;28;5806;-78
2024/01/15 11:59:46;;;;;;;;;;;;;;;8.18;59.67;95895.03;4185061;28;5678;-78
2024/01/15 12:01:49;;;;;;;;;;;;;;;8.18;59.70;95895.84;4185516;28;5787;-78
2024/01/15 12:03:52;;;;;;;;;;;;;;;8.17;59.84;95883.69;4184955;28;5674;-77
2024/01/15 12:05:59;;;;;;;;;;;;;;;8.15;59.90;95885.72;4183554;28;5689;-77
2024/01/15 12:08:02;;;;;;;;;;;;;;;8.17;60.20;95883.69;4185055;28;5769;-78
2024/01/15 12:10:10;;;;;;;;;;;;;;;8.21;60.19;95885.91;4185253;28;5870;-78
2024/01/15 12:12:23;;;;;;;;;;;;;;;8.21;60.09;95873.56;4185991;28;6384;-78
2024/01/15 12:14:27;;;;;;;;;;;;;;;8.25;60.27;95881.84;4186023;28;5723;-78
2024/01/15 12:16:30;;;;;;;;;;;;;;;8.20;60.14;95860.59;4186110;28;6393;-76
2024/01/15 12:18:33;;;;;;;;;;;;;;;8.20;60.11;95866.66;4185716;28;5708;-78
2024/01/15 12:20:36;;;;;;;;;;;;;;;8.21;60.13;95864.84;4184332;28;5704;-78
2024/01/15 12:22:40;;;;;;;;;;;;;;;8.23;60.53;95882.06;4183870;28;7191;-78
2024/01/15 12:24:59;;;;;;;;;;;;;;;8.25;60.46;95884.47;4176066;28;6630;-78
2024/01/15 12:27:02;;;;;;;;;;;;;;;8.26;60.82;95886.09;4185178;28;5715;-77
2024/01/15 12:29:07;;;;;;;;;;;;;;;8.26;60.35;95891.38;4185166;28;5762;-78
2024/01/15 12:31:10;;;;;;;;;;;;;;;8.26;60.85;95886.09;4184135;28;5931;-78
2024/01/15 12:33:14;;;;;;;;;;;;;;;8.25;60.85;95884.47;4182746;28;5801;-78
2024/01/15 12:35:17;;;;;;;;;;;;;;;8.25;60.60;95881.84;4179818;28;5901;-78
2024/01/15 12:37:20;;;;;;;;;;;;;;;8.24;60.67;95885.50;4169401;28;5979;-78
2024/01/15 12:39:24;;;;;;;;;;;;;;;8.24;60.50;95880.22;4180768;28;6864;-76
2024/01/15 12:41:27;;;;;;;;;;;;;;;8.27;60.66;95878.03;4183325;28;5439;-77
2024/01/15 12:43:31;;;;;;;;;;;;;;;8.26;60.62;95872.94;4173007;28;7122;-81
2024/01/15 12:45:35;;;;;;;;;;;;;;;8.27;60.75;95866.66;4181862;28;5850;-75
2024/01/15 12:47:38;;;;;;;;;;;;;;;8.27;60.94;95864.88;4183366;28;5711;-80
2024/01/15 12:49:42;;;;;;;;;;;;;;;8.27;60.70;95856.13;4183901;28;5770;-77
2024/01/15 12:51:52;;;;;;;;;;;;;;;8.27;60.96;95856.97;4183110;28;5719;-78
2024/01/15 12:53:55;;;;;;;;;;;;;;;8.28;60.92;95841.97;4187637;28;5711;-79
2024/01/15 12:56:00;;;;;;;;;;;;;;;8.26;60.96;95839.50;4184360;28;5805;-78
2024/01/15 12:58:05;;;;;;;;;;;;;;;8.27;61.04;95820.09;4184625;28;5787;-78
2024/01/15 13:00:11;;;;;;;;;;;;;;;8.25;60.78;95830.00;4184839;28;5685;-79
2024/01/15 13:02:17;;;;;;;;;;;;;;;8.27;60.96;95821.88;4184848;28;5749;-78
2024/01/15 13:04:23;;;;;;;;;;;;;;;8.28;60.85;95826.97;4184742;28;5686;-78
2024/01/15 13:06:29;;;;;;;;;;;;;;;8.32;61.23;95822.91;4184703;28;5780;-78
2024/01/15 13:08:32;;;;;;;;;;;;;;;8.29;60.98;95825.97;4184573;28;5788;-77
2024/01/15 13:10:34;;;;;;;;;;;;;;;8.28;61.38;95828.81;4183138;28;5559;-78
2024/01/15 13:12:39;;;;;;;;;;;;;;;8.28;61.31;95828.81;4184508;28;5885;-78
2024/01/15 13:14:42;;;;;;;;;;;;;;;8.29;61.62;95835.69;4184428;28;5765;-78
2024/01/15 13:16:46;;;;;;;;;;;;;;;8.33;61.34;95839.53;4181812;28;5742;-78
2024/01/15 13:18:49;;;;;;;;;;;;;;;8.33;61.32;95842.16;4182403;28;5739;-78
2024/01/15 13:20:53;;;;;;;;;;;;;;;8.31;61.47;95847.63;4168529;28;5752;-78
2024/01/15 13:22:56;;;;;;;;;;;;;;;8.34;61.58;95851.69;4169234;28;5658;-78
2024/01/15 13:25:00;;;;;;;;;;;;;;;8.36;61.52;95860.22;4180398;28;5920;-77
2024/01/15 13:27:04;;;;;;;;;;;;;;;8.32;61.34;95854.53;4183739;28;5783;-78
2024/01/15 13:29:09;;;;;;;;;;;;;;;8.28;61.35;95852.50;4177031;28;6007;-78
2024/01/15 13:31:12;;;;;;;;;;;;;;;8.30;61.50;95859.19;4182959;28;7132;-78
2024/01/15 13:33:15;;;;;;;;;;;;;;;8.30;61.36;95872.34;4182190;28;5802;-78
2024/01/15 13:35:18;;;;;;;;;;;;;;;8.31;61.56;95873.97;4178336;28;5786;-78
2024/01/15 13:37:20;;;;;;;;;;;;;;;8.32;61.36;95865.06;4181732;28;5720;-78
2024/01/15 13:39:23;;;;;;;;;;;;;;;8.35;61.14;95867.31;4177775;28;5703;-77
2024/01/15 13:41:27;;;;;;;;;;;;;;;8.37;61.22;95872.38;4183174;28;5703;-78
2024/01/15 13:43:30;;;;;;;;;;;;;;;8.39;61.35;95878.28;4182572;28;5856;-78
2024/01/15 13:45:36;;;;;;;;;;;;;;;8.40;60.89;95872.00;4181096;28;5794;-76
2024/01/15 13:47:39;;;;;;;;;;;;;;;8.40;61.24;95861.47;4180156;28;5842;-77
2024/01/15 13:49:43;;;;;;;;;;;;;;;8.40;61.00;95859.63;4178337;28;5798;-77
2024/01/15 13:51:46;;;;;;;;;;;;;;;8.42;60.87;95864.69;4179079;28;5815;-78
2024/01/15 13:53:50;;;;;;;;;;;;;;;8.43;60.79;95861.84;4180129;28;5810;-77
2024/01/15 13:55:52;;;;;;;;;;;;;;;8.45;60.76;95869.56;4182105;28;5743;-77
2024/01/15 13:57:55;;;;;;;;;;;;;;;8.45;60.67;95869.56;4185887;28;5782;-77
2024/01/15 13:59:58;;;;;;;;;;;;;;;8.47;60.65;95872.78;4178252;28;5105;-77
2024/01/15 14:02:03;;;;;;;;;;;;;;;8.48;60.63;95869.13;4185646;28;5831;-77
2024/01/15 14:04:06;;;;;;;;;;;;;;;8.51;60.56;95873.22;4184136;28;5715;-78
2024/01/15 14:06:10;;;;;;;;;;;;;;;8.53;60.59;95872.00;4183595;28;5731;-77
2024/01/15 14:08:14;;;;;;;;;;;;;;;8.55;60.28;95871.78;4183701;28;5732;-77
2024/01/15 14:10:18;;;;;;;;;;;;;;;8.55;60.67;95883.13;4181101;28;5875;-77
2024/01/15 14:12:21;;;;;;;;;;;;;;;8.56;60.38;95895.28;4172813;28;6418;-66
2024/01/15 14:14:24;;;;;;;;;;;;;;;8.56;60.04;95887.38;4177885;28;5798;-66
2024/01/15 14:16:27;;;;;;;;;;;;;;;8.57;60.28;95894.28;4182253;28;5715;-66
2024/01/15 14:18:32;;;;;;;;;;;;;;;8.58;60.39;95893.25;4173865;28;5812;-66
2024/01/15 14:20:37;;;;;;;;;;;;;;;8.59;60.29;95892.25;4179844;28;5723;-67
2024/01/15 14:22:40;;;;;;;;;;;;;;;8.60;60.09;95891.22;4170767;28;5733;-67
2024/01/15 14:24:43;;;;;;;;;;;;;;;8.63;60.08;95893.47;4181687;28;5822;-67
2024/01/15 14:26:46;;;;;;;;;;;;;;;8.66;60.14;95887.78;4181235;28;5929;-67
2024/01/15 14:28:49;;;;;;;;;;;;;;;8.69;60.08;95887.38;4178085;28;5822;-67
2024/01/15 14:30:53;;;;;;;;;;;;;;;8.70;60.09;95891.63;4183985;28;5849;-67
2024/01/15 14:32:56;;;;;;;;;;;;;;;8.72;59.83;95899.34;4185976;28;5707;-67
2024/01/15 14:35:00;;;;;;;;;;;;;;;8.71;59.97;95901.16;4182301;28;5858;-67
2024/01/15 14:37:04;;;;;;;;;;;;;;;8.74;59.83;95905.22;4185477;28;5715;-67
2024/01/15 14:39:07;;;;;;;;;;;;;;;8.77;59.51;95909.28;4184405;28;5772;-66
2024/01/15 14:41:11;;;;;;;;;;;;;;;8.77;59.53;95909.28;4180401;28;5767;-66
2024/01/15 14:43:14;;;;;;;;;;;;;;;8.82;59.45;95912.91;4185035;28;5773;-67
2024/01/15 14:45:16;;;;;;;;;;;;;;;8.85;59.80;95912.53;4185749;28;5722;-67
2024/01/15 14:47:23;;;;;;;;;;;;;;;8.82;59.47;95907.66;4185218;28;5834;-67
2024/01/15 14:49:27;;;;;;;;;;;;;;;8.85;59.70;95922.25;4185665;28;5822;-66
2024/01/15 14:51:32;;;;;;;;;;;;;;;8.88;59.48;95916.56;4185488;28;5797;-66
2024/01/15 14:53:36;;;;;;;;;;;;;;;8.90;59.36;95927.72;4185599;28;6424;-66
2024/01/15 14:55:39;;;;;;;;;;;;;;;8.91;59.53;95910.88;4183755;28;5218;-66
2024/01/15 14:57:41;;;;;;;;;;;;;;;8.92;59.46;95928.31;4179686;28;5265;-66
2024/01/15 14:59:44;;;;;;;;;;;;;;;8.93;59.54;95924.66;4185147;28;7756;-67
2024/01/15 15:01:47;;;;;;;;;;;;;;;8.93;59.53;95938.66;4185169;28;5854;-68
2024/01/15 15:03:52;;;;;;;;;;;;;;;8.93;59.68;95940.50;4181997;28;5847;-67
2024/01/15 15:05:55;;;;;;;;;;;;;;;8.90;59.61;95936.44;4185030;28;5711;-67
2024/01/15 15:07:59;;;;;;;;;;;;;;;8.87;59.15;95942.13;4186104;28;5831;-66
2024/01/15 15:10:04;;;;;;;;;;;;;;;8.87;59.08;95942.13;4182851;28;5752;-67
2024/01/15 15:12:08;;;;;;;;;;;;;;;8.85;59.52;95943.34;4182439;28;5913;-67
2024/01/15 15:14:13;;;;;;;;;;;;;;;8.83;59.08;95955.88;4182970;28;5820;-68
2024/01/15 15:16:16;;;;;;;;;;;;;;;8.80;59.14;95951.03;4182300;28;5084;-67
2024/01/15 15:18:19;;;;;;;;;;;;;;;8.79;59.40;95950.22;4182173;28;7823;-67
2024/01/15 15:20:22;;;;;;;;;;;;;;;8.75;59.21;95949.81;4185960;28;5731;-66
2024/01/15 15:22:24;;;;;;;;;;;;;;;8.74;59.04;95958.75;4185756;28;5708;-67
2024/01/15 15:24:29;;;;;;;;;;;;;;;8.72;59.16;95973.94;4179651;28;6417;-69
2024/01/15 15:26:32;;;;;;;;;;;;;;;8.67;58.12;95971.09;4169769;28;5930;-68
2024/01/15 15:28:36;;;;;;;;;;;;;;;8.57;57.35;95968.03;4177089;28;5728;-67
2024/01/15 15:30:40;;;;;;;;;;;;;;;8.52;56.17;95986.28;4186284;28;5803;-68
2024/01/15 15:32:43;;;;;;;;;;;;;;;8.36;53.56;95976.09;4182022;28;5722;-67
2024/01/15 15:34:45;;;;;;;;;;;;;;;8.23;55.28;95981.31;4184823;28;5699;-67
2024/01/15 15:36:48;;;;;;;;;;;;;;;8.13;52.84;95993.00;4171175;28;5737;-67
2024/01/15 15:38:51;;;;;;;;;;;;;;;7.94;52.59;95983.25;4182090;28;5747;-66
2024/01/15 15:40:59;;;;;;;;;;;;;;;7.89;53.27;96001.41;4185394;28;5673;-67
2024/01/15 15:43:02;;;;;;;;;;;;;;;7.84;53.39;95996.75;4184856;28;5695;-67
2024/01/15 15:45:05;;;;;;;;;;;;;;;7.78;52.66;96001.97;4185806;28;5712;-67
2024/01/15 15:47:09;;;;;;;;;;;;;;;7.72;52.18;96000.94;4175227;28;5849;-67
2024/01/15 15:49:12;;;;;;;;;;;;;;;7.69;53.07;96011.84;4184045;28;5715;-68
2024/01/15 15:51:15;;;;;;;;;;;;;;;7.70;52.57;96012.63;4183781;28;5686;-67
2024/01/15 15:53:21;;;;;;;;;;;;;;;7.69;51.64;96022.34;4181391;28;7827;-68
2024/01/15 15:55:24;;;;;;;;;;;;;;;7.64;52.11;96016.06;4181282;28;6516;-68
2024/01/15 15:57:29;;;;;;;;;;;;;;;7.54;50.86;96013.78;4180200;28;5085;-68
2024/01/15 15:59:32;;;;;;;;;;;;;;;7.45;51.00;96014.94;4183641;28;5873;-67
2024/01/15 16:01:35;;;;;;;;;;;;;;;7.44;51.75;96023.81;4180817;28;5882;-67
2024/01/15 16:03:38;;;;;;;;;;;;;;;7.42;50.64;96021.38;4177224;28;5716;-75
2024/01/15 16:05:41;;;;;;;;;;;;;;;7.42;50.66;96026.66;4174977;28;5720;-75
2024/01/15 16:07:55;;;;;;;;;;;;;;;7.38;50.22;96021.97;4178364;28;5842;-66
2024/01/15 16:09:58;;;;;;;;;;;;;;;7.35;50.25;96017.88;4183528;28;5818;-66
2024/01/15 16:12:03;;;;;;;;;;;;;;;7.32;49.19;96020.09;4176296;28;5816;-66
2024/01/15 16:14:06;;;;;;;;;;;;;;;7.27;49.09;96029.38;4178396;28;6418;-67
2024/01/15 16:16:09;;;;;;;;;;;;;;;7.24;46.73;96036.81;4178526;28;5870;-70
2024/01/15 16:18:32;;;;;;;;;;;;;;;7.13;47.02;96026.81;4180634;28;5103;-70
2024/01/15 16:20:55;;;;;;;;;;;;;;;7.10;47.60;96041.16;4172705;28;5731;-69
2024/01/15 16:23:18;;;;;;;;;;;;;;;7.05;46.82;96040.13;4181555;28;5926;-70
2024/01/15 16:25:42;;;;;;;;;;;;;;;6.97;47.03;96031.34;4182692;28;5763;-69
2024/01/15 16:27:45;;;;;;;;;;;;;;;7.01;46.76;96034.41;4184475;28;5711;-72
2024/01/15 16:29:50;;;;;;;;;;;;;;;6.97;46.69;96033.97;4183660;28;5727;-69
2024/01/15 16:31:52;;;;;;;;;;;;;;;6.98;47.16;96035.59;4172680;28;5653;-69
2024/01/15 16:33:55;;;;;;;;;;;;;;;7.04;47.10;96043.75;4184681;28;5793;-69
2024/01/15 16:36:07;;;;;;;;;;;;;;;7.02;45.89;96046.53;4185003;28;5846;-70
2024/01/15 16:38:11;;;;;;;;;;;;;;;6.96;45.84;96048.13;4184654;28;6217;-69
2024/01/15 16:40:15;;;;;;;;;;;;;;;6.91;45.90;96050.50;4184669;28;5674;-69
2024/01/15 16:42:18;;;;;;;;;;;;;;;6.92;46.06;96051.31;4184774;28;5711;-68
2024/01/15 16:44:22;;;;;;;;;;;;;;;6.99;46.03;96055.63;4184836;28;5719;-71
2024/01/15 16:46:26;;;;;;;;;;;;;;;7.04;46.42;96056.88;4184676;28;5707;-71
2024/01/15 16:48:31;;;;;;;;;;;;;;;7.12;45.30;96054.91;4181630;28;5898;-71
2024/01/15 16:50:35;;;;;;;;;;;;;;;7.07;45.38;96059.13;4183801;28;5703;-72
2024/01/15 16:52:38;;;;;;;;;;;;;;;7.06;45.63;96065.41;4175190;28;5719;-72
2024/01/15 16:54:41;;;;;;;;;;;;;;;7.03;44.91;96057.91;4184530;28;6356;-71
2024/01/15 16:56:45;;;;;;;;;;;;;;;7.01;45.16;96068.56;4184707;28;5739;-72
2024/01/15 16:58:48;;;;;;;;;;;;;;;6.99;45.43;96068.75;4184438;28;5708;-70
2024/01/15 17:00:52;;;;;;;;;;;;;;;7.03;45.28;96063.16;4184943;28;5818;-71
2024/01/15 17:02:56;;;;;;;;;;;;;;;7.04;44.13;96072.66;4184668;28;5694;-70
2024/01/15 17:04:59;;;;;;;;;;;;;;;6.98;43.71;96056.63;4188023;28;5781;-70
2024/01/15 17:07:04;;;;;;;;;;;;;;;6.90;44.03;96064.63;4179989;28;6401;-72
2024/01/15 17:09:07;;;;;;;;;;;;;;;6.88;43.73;96069.25;4184586;28;5762;-71
2024/01/15 17:11:10;;;;;;;;;;;;;;;6.87;44.01;96065.00;4183842;28;5749;-71
2024/01/15 17:13:13;;;;;;;;;;;;;;;6.88;43.79;96066.63;4184461;28;5930;-70
2024/01/15 17:15:16;;;;;;;;;;;;;;;6.89;44.03;96052.50;4184238;28;5696;-70
2024/01/15 17:17:21;;;;;;;;;;;;;;;6.88;43.09;96053.50;4182683;28;5719;-71
2024/01/15 17:19:27;;;;;;;;;;;;;;;6.85;43.54;96053.88;4170166;28;5922;-71
2024/01/15 17:21:30;;;;;;;;;;;;;;;6.88;43.74;96060.56;4176775;28;5653;-72
2024/01/15 17:23:33;;;;;;;;;;;;;;;6.91;43.53;96055.78;4182878;28;5685;-70